Rechercher aéroport 
image banner adimage banner ad
image banner ad

SVON - Cabimas

Situé à Oro Negro Zulia, Venezuela

ICAO - SVON, IATA - CBS

Données fournies par Airmate  

Information générale

Coordonnées: N10°19'48" W71°19'21"
Élévation : 164 feet MSL.
 
Voir autres Aéroports à Zulia

Données opérationnelles

Accessible au public
Heure actuelle UTC:
Heure actuelle locale:
Météo à : SVMC - Maracaibo / La Chinita Intl ( 51 km )
METAR: SVMC 301602Z AUTO 16002KT NCD 32/23 Q1011
TAF: TAF SVMC 301000Z 3012/0112 00000KT 9999 FEW013 TX34/3019Z TN23/3007Z BECMG 3015/3020 18006KT SCT013 FM302100 09006KT 9999 SCT013 SCT070
Voir NOTAMs / SUP AIP / TFR affectant cet aéroport [VIEW]
Fréquences de communication: [VIEW]

Pistes:

Identifiant RWYQFULongueur (ft)Largeur (ft)SurfaceLDA (ft)
0656°616095ASP
2400

Coordonnées de l'aéroport

Adresse: Oro Negro Zulia Venezuela

Vue satellite de SVON